Forside
METAR-TAF:

METAR-TAF

Lufthavne :

Dubbo, Australien

Breddekreds: 32-12S, længdekreds: 148-34E, højde: 275 m

Aktuelle vejr

Denne rapport blev lavet for 13 minutter siden, kl. 02:00 UTC
Vind 13 kt fra østsydøst
Temperatur 31°C
Fugtighed 33%
Tryk 1013 hPa
Sigt 10 km eller mere

METAR: YSDU 210200Z AUTO 11013KT 9999 // NCD 31/13 Q1013

Tid: 13:13 (02:13 UTC)

Vejrudsigter

Denne rapport blev lavet for 2 timer og 55 minutter siden, kl. 23:18 UTC
Foreløbig gælder fra 21 på 00 UTC til 21 på 18 UTC
Vind 14 kt fra østsydøst
Sigt 10 km eller mere
ingen skyer under 1500m og ingen cumulonimbus

TAF: YSDU 202318Z 2100/2118 11014KT CAVOK

Vejrobservationer og prognoser fra mere end 4000 lufthavne (METAR og TAF).

De gule og røde prikker repræsenterer de meteorologiske stationer.

Flyt musen over at se navnet på stationen.

Så klik over at se vejr observationer og prognoser.

At skifte det kort: Klik på de grønne knapper med et sort kors for at zoome ind; på den grønne knap med en bindestreg for at zoome ud; eller på de grønne pile for tilstødende kort.


METAR-TAF: